Terminal Aerodrome Forecast
Issued by NWS Quad Cities IA IL

Home | Current Version | Previous Version | Text Only | Print | Product List | Glossary On
Versions: 1 2 3 4 5 6 7 8 9 10 11 12 13 14 15 16 17 18 19
000
FTUS43 KDVN 160000 AAA
TAFMLI
TAF AMD
KMLI 160008Z 1600/1624 02008KT P6SM BKN025
     FM160100 01006KT P6SM SCT028 BKN040
     FM160300 02003KT P6SM SKC=

USA.gov is the U.S. government's official web portal to all federal, state and local government web resources and services.